sensor_id;sensor_type;location;lat;lon;timestamp;P1;durP1;ratioP1;P2;durP2;ratioP2
5351;SDS011;2698;51.454;6.736;2022-08-19T00:01:19;17.27;;;9.27;;
5351;SDS011;2698;51.454;6.736;2022-08-19T00:03:46;27.23;;;9.13;;
5351;SDS011;2698;51.454;6.736;2022-08-19T00:06:13;20.33;;;9.40;;
5351;SDS011;2698;51.454;6.736;2022-08-19T00:08:40;16.60;;;9.10;;
5351;SDS011;2698;51.454;6.736;2022-08-19T00:11:07;29.90;;;9.07;;
5351;SDS011;2698;51.454;6.736;2022-08-19T00:13:34;24.20;;;9.77;;
5351;SDS011;2698;51.454;6.736;2022-08-19T00:16:03;27.80;;;10.37;;
5351;SDS011;2698;51.454;6.736;2022-08-19T00:18:30;26.17;;;10.17;;
5351;SDS011;2698;51.454;6.736;2022-08-19T00:20:57;28.50;;;9.03;;
5351;SDS011;2698;51.454;6.736;2022-08-19T00:23:25;19.57;;;8.50;;
5351;SDS011;2698;51.454;6.736;2022-08-19T00:25:52;18.03;;;9.90;;
5351;SDS011;2698;51.454;6.736;2022-08-19T00:28:19;27.67;;;9.20;;
5351;SDS011;2698;51.454;6.736;2022-08-19T00:30:46;21.37;;;8.60;;
5351;SDS011;2698;51.454;6.736;2022-08-19T00:33:14;13.20;;;8.27;;
5351;SDS011;2698;51.454;6.736;2022-08-19T00:35:41;16.03;;;9.43;;
5351;SDS011;2698;51.454;6.736;2022-08-19T00:38:08;19.17;;;8.00;;
5351;SDS011;2698;51.454;6.736;2022-08-19T00:40:35;26.63;;;10.20;;
5351;SDS011;2698;51.454;6.736;2022-08-19T00:43:07;15.97;;;8.33;;
5351;SDS011;2698;51.454;6.736;2022-08-19T00:45:34;24.03;;;10.23;;
5351;SDS011;2698;51.454;6.736;2022-08-19T00:48:02;16.93;;;8.80;;
5351;SDS011;2698;51.454;6.736;2022-08-19T00:50:31;26.53;;;9.47;;
5351;SDS011;2698;51.454;6.736;2022-08-19T00:52:58;15.17;;;9.03;;
5351;SDS011;2698;51.454;6.736;2022-08-19T00:55:25;26.67;;;9.83;;
5351;SDS011;2698;51.454;6.736;2022-08-19T00:57:55;31.10;;;10.13;;
5351;SDS011;2698;51.454;6.736;2022-08-19T01:00:24;19.77;;;11.00;;
5351;SDS011;2698;51.454;6.736;2022-08-19T01:02:53;19.80;;;9.63;;
5351;SDS011;2698;51.454;6.736;2022-08-19T01:05:22;18.07;;;10.27;;
5351;SDS011;2698;51.454;6.736;2022-08-19T01:07:53;23.53;;;10.87;;
5351;SDS011;2698;51.454;6.736;2022-08-19T01:10:24;23.50;;;10.80;;
5351;SDS011;2698;51.454;6.736;2022-08-19T01:12:52;32.47;;;10.80;;
5351;SDS011;2698;51.454;6.736;2022-08-19T01:15:23;20.80;;;11.37;;
5351;SDS011;2698;51.454;6.736;2022-08-19T01:17:53;17.33;;;11.40;;
5351;SDS011;2698;51.454;6.736;2022-08-19T01:20:21;22.03;;;11.97;;
5351;SDS011;2698;51.454;6.736;2022-08-19T01:22:51;23.33;;;11.90;;
5351;SDS011;2698;51.454;6.736;2022-08-19T01:25:21;16.90;;;11.37;;
5351;SDS011;2698;51.454;6.736;2022-08-19T01:27:52;24.03;;;11.53;;
5351;SDS011;2698;51.454;6.736;2022-08-19T01:30:20;18.70;;;11.00;;
5351;SDS011;2698;51.454;6.736;2022-08-19T01:32:48;13.17;;;11.10;;
5351;SDS011;2698;51.454;6.736;2022-08-19T01:35:15;17.90;;;12.33;;
5351;SDS011;2698;51.454;6.736;2022-08-19T01:37:44;17.80;;;11.47;;
5351;SDS011;2698;51.454;6.736;2022-08-19T01:40:14;17.40;;;11.27;;
5351;SDS011;2698;51.454;6.736;2022-08-19T01:42:41;18.77;;;12.67;;
5351;SDS011;2698;51.454;6.736;2022-08-19T01:45:08;23.83;;;12.07;;
5351;SDS011;2698;51.454;6.736;2022-08-19T01:47:36;20.70;;;12.30;;
5351;SDS011;2698;51.454;6.736;2022-08-19T01:50:03;20.63;;;12.70;;
5351;SDS011;2698;51.454;6.736;2022-08-19T01:52:32;16.83;;;12.03;;
5351;SDS011;2698;51.454;6.736;2022-08-19T01:55:01;13.27;;;11.87;;
5351;SDS011;2698;51.454;6.736;2022-08-19T01:57:29;14.57;;;12.00;;
5351;SDS011;2698;51.454;6.736;2022-08-19T01:59:56;23.70;;;13.40;;
5351;SDS011;2698;51.454;6.736;2022-08-19T02:02:23;19.33;;;13.20;;
5351;SDS011;2698;51.454;6.736;2022-08-19T02:04:50;16.83;;;13.10;;
5351;SDS011;2698;51.454;6.736;2022-08-19T02:07:18;20.43;;;12.77;;
5351;SDS011;2698;51.454;6.736;2022-08-19T02:09:45;21.23;;;13.30;;
5351;SDS011;2698;51.454;6.736;2022-08-19T02:12:13;22.87;;;11.97;;
5351;SDS011;2698;51.454;6.736;2022-08-19T02:14:42;25.10;;;11.93;;
5351;SDS011;2698;51.454;6.736;2022-08-19T02:17:09;13.63;;;12.23;;
5351;SDS011;2698;51.454;6.736;2022-08-19T02:19:36;16.83;;;11.10;;
5351;SDS011;2698;51.454;6.736;2022-08-19T02:22:03;16.53;;;12.23;;
5351;SDS011;2698;51.454;6.736;2022-08-19T02:24:30;12.40;;;10.80;;
5351;SDS011;2698;51.454;6.736;2022-08-19T02:26:57;17.83;;;11.80;;
5351;SDS011;2698;51.454;6.736;2022-08-19T02:29:24;12.47;;;11.27;;
5351;SDS011;2698;51.454;6.736;2022-08-19T02:31:52;14.50;;;11.80;;
5351;SDS011;2698;51.454;6.736;2022-08-19T02:34:19;18.33;;;12.53;;
5351;SDS011;2698;51.454;6.736;2022-08-19T02:36:46;18.13;;;12.70;;
5351;SDS011;2698;51.454;6.736;2022-08-19T02:39:13;18.00;;;14.50;;
5351;SDS011;2698;51.454;6.736;2022-08-19T02:41:39;21.93;;;14.90;;
5351;SDS011;2698;51.454;6.736;2022-08-19T02:44:06;15.83;;;14.23;;
5351;SDS011;2698;51.454;6.736;2022-08-19T02:46:34;22.90;;;16.00;;
5351;SDS011;2698;51.454;6.736;2022-08-19T02:49:03;18.13;;;15.13;;
5351;SDS011;2698;51.454;6.736;2022-08-19T02:51:33;20.67;;;17.90;;
5351;SDS011;2698;51.454;6.736;2022-08-19T02:54:01;25.03;;;18.90;;
5351;SDS011;2698;51.454;6.736;2022-08-19T02:56:29;21.63;;;17.50;;
5351;SDS011;2698;51.454;6.736;2022-08-19T02:58:56;22.73;;;18.30;;
5351;SDS011;2698;51.454;6.736;2022-08-19T03:01:24;24.70;;;17.60;;
5351;SDS011;2698;51.454;6.736;2022-08-19T03:03:53;26.03;;;17.70;;
5351;SDS011;2698;51.454;6.736;2022-08-19T03:06:22;21.77;;;17.77;;
5351;SDS011;2698;51.454;6.736;2022-08-19T03:08:49;18.20;;;16.40;;
5351;SDS011;2698;51.454;6.736;2022-08-19T03:11:16;22.23;;;18.27;;
5351;SDS011;2698;51.454;6.736;2022-08-19T03:13:45;21.37;;;17.43;;
5351;SDS011;2698;51.454;6.736;2022-08-19T03:16:14;22.00;;;18.10;;
5351;SDS011;2698;51.454;6.736;2022-08-19T03:18:41;20.97;;;18.80;;
5351;SDS011;2698;51.454;6.736;2022-08-19T03:21:08;19.17;;;17.37;;
5351;SDS011;2698;51.454;6.736;2022-08-19T03:23:36;25.40;;;17.40;;
5351;SDS011;2698;51.454;6.736;2022-08-19T03:26:04;26.63;;;19.20;;
5351;SDS011;2698;51.454;6.736;2022-08-19T03:28:32;21.83;;;19.13;;
5351;SDS011;2698;51.454;6.736;2022-08-19T03:31:00;30.83;;;19.43;;
5351;SDS011;2698;51.454;6.736;2022-08-19T03:33:29;22.97;;;20.27;;
5351;SDS011;2698;51.454;6.736;2022-08-19T03:36:04;23.00;;;20.03;;
5351;SDS011;2698;51.454;6.736;2022-08-19T03:38:33;23.33;;;20.90;;
5351;SDS011;2698;51.454;6.736;2022-08-19T03:41:06;25.07;;;22.37;;
5351;SDS011;2698;51.454;6.736;2022-08-19T03:43:35;28.37;;;20.70;;
5351;SDS011;2698;51.454;6.736;2022-08-19T03:46:03;27.67;;;24.80;;
5351;SDS011;2698;51.454;6.736;2022-08-19T03:48:31;28.23;;;24.90;;
5351;SDS011;2698;51.454;6.736;2022-08-19T03:50:59;29.60;;;24.67;;
5351;SDS011;2698;51.454;6.736;2022-08-19T03:53:26;33.87;;;24.30;;
5351;SDS011;2698;51.454;6.736;2022-08-19T03:55:55;35.77;;;24.60;;
5351;SDS011;2698;51.454;6.736;2022-08-19T03:58:25;30.90;;;25.83;;
5351;SDS011;2698;51.454;6.736;2022-08-19T04:00:53;30.93;;;26.47;;
5351;SDS011;2698;51.454;6.736;2022-08-19T04:03:20;36.53;;;26.40;;
5351;SDS011;2698;51.454;6.736;2022-08-19T04:05:47;33.60;;;26.20;;
5351;SDS011;2698;51.454;6.736;2022-08-19T04:08:15;33.57;;;28.20;;
5351;SDS011;2698;51.454;6.736;2022-08-19T04:10:43;31.63;;;26.30;;
5351;SDS011;2698;51.454;6.736;2022-08-19T04:13:10;34.00;;;26.13;;
5351;SDS011;2698;51.454;6.736;2022-08-19T04:15:40;39.03;;;26.73;;
5351;SDS011;2698;51.454;6.736;2022-08-19T04:18:08;29.87;;;26.47;;
5351;SDS011;2698;51.454;6.736;2022-08-19T04:20:38;36.90;;;26.27;;
5351;SDS011;2698;51.454;6.736;2022-08-19T04:23:07;30.30;;;27.03;;
5351;SDS011;2698;51.454;6.736;2022-08-19T04:25:35;35.27;;;28.00;;
5351;SDS011;2698;51.454;6.736;2022-08-19T04:28:03;32.90;;;27.40;;
5351;SDS011;2698;51.454;6.736;2022-08-19T04:30:30;37.10;;;27.60;;
5351;SDS011;2698;51.454;6.736;2022-08-19T04:32:58;35.57;;;26.87;;
5351;SDS011;2698;51.454;6.736;2022-08-19T04:35:25;33.20;;;27.30;;
5351;SDS011;2698;51.454;6.736;2022-08-19T04:37:52;36.97;;;30.00;;
5351;SDS011;2698;51.454;6.736;2022-08-19T04:40:19;36.43;;;32.03;;
5351;SDS011;2698;51.454;6.736;2022-08-19T04:43:03;46.10;;;36.00;;
5351;SDS011;2698;51.454;6.736;2022-08-19T04:45:30;51.43;;;39.23;;
5351;SDS011;2698;51.454;6.736;2022-08-19T04:47:58;55.30;;;40.53;;
5351;SDS011;2698;51.454;6.736;2022-08-19T04:50:26;53.37;;;41.17;;
5351;SDS011;2698;51.454;6.736;2022-08-19T04:52:53;63.57;;;44.03;;
5351;SDS011;2698;51.454;6.736;2022-08-19T04:55:21;63.03;;;46.17;;
5351;SDS011;2698;51.454;6.736;2022-08-19T04:57:48;71.80;;;44.50;;
5351;SDS011;2698;51.454;6.736;2022-08-19T05:00:15;62.03;;;48.00;;
5351;SDS011;2698;51.454;6.736;2022-08-19T05:02:42;63.80;;;44.90;;
5351;SDS011;2698;51.454;6.736;2022-08-19T05:05:11;73.80;;;50.30;;
5351;SDS011;2698;51.454;6.736;2022-08-19T05:07:38;71.97;;;51.60;;
5351;SDS011;2698;51.454;6.736;2022-08-19T05:10:06;68.27;;;51.00;;
5351;SDS011;2698;51.454;6.736;2022-08-19T05:12:33;81.07;;;51.50;;
5351;SDS011;2698;51.454;6.736;2022-08-19T05:15:02;64.90;;;45.57;;
5351;SDS011;2698;51.454;6.736;2022-08-19T05:17:30;60.80;;;43.80;;
5351;SDS011;2698;51.454;6.736;2022-08-19T05:19:57;51.10;;;38.03;;
5351;SDS011;2698;51.454;6.736;2022-08-19T05:22:44;63.13;;;37.80;;
5351;SDS011;2698;51.454;6.736;2022-08-19T05:25:13;47.00;;;37.43;;
5351;SDS011;2698;51.454;6.736;2022-08-19T05:27:43;49.70;;;38.47;;
5351;SDS011;2698;51.454;6.736;2022-08-19T05:30:10;47.23;;;38.30;;
5351;SDS011;2698;51.454;6.736;2022-08-19T05:32:38;51.10;;;39.07;;
5351;SDS011;2698;51.454;6.736;2022-08-19T05:35:06;63.40;;;42.63;;
5351;SDS011;2698;51.454;6.736;2022-08-19T05:37:34;59.70;;;42.13;;
5351;SDS011;2698;51.454;6.736;2022-08-19T05:40:02;50.83;;;42.20;;
5351;SDS011;2698;51.454;6.736;2022-08-19T05:42:30;57.17;;;43.33;;
5351;SDS011;2698;51.454;6.736;2022-08-19T05:44:56;52.87;;;43.27;;
5351;SDS011;2698;51.454;6.736;2022-08-19T05:47:23;69.17;;;46.90;;
5351;SDS011;2698;51.454;6.736;2022-08-19T05:49:50;58.80;;;47.87;;
5351;SDS011;2698;51.454;6.736;2022-08-19T05:52:17;58.50;;;45.83;;
5351;SDS011;2698;51.454;6.736;2022-08-19T05:54:45;59.00;;;45.80;;
5351;SDS011;2698;51.454;6.736;2022-08-19T05:57:17;62.70;;;45.70;;
5351;SDS011;2698;51.454;6.736;2022-08-19T05:59:44;56.67;;;46.50;;
5351;SDS011;2698;51.454;6.736;2022-08-19T06:02:15;63.97;;;46.87;;
5351;SDS011;2698;51.454;6.736;2022-08-19T06:04:42;67.43;;;47.23;;
5351;SDS011;2698;51.454;6.736;2022-08-19T06:07:08;70.10;;;48.47;;
5351;SDS011;2698;51.454;6.736;2022-08-19T06:09:36;58.70;;;47.73;;
5351;SDS011;2698;51.454;6.736;2022-08-19T06:12:03;66.60;;;49.97;;
5351;SDS011;2698;51.454;6.736;2022-08-19T06:14:33;62.27;;;48.57;;
5351;SDS011;2698;51.454;6.736;2022-08-19T06:17:01;68.57;;;51.20;;
5351;SDS011;2698;51.454;6.736;2022-08-19T06:19:29;68.37;;;51.07;;
5351;SDS011;2698;51.454;6.736;2022-08-19T06:21:57;65.30;;;48.83;;
5351;SDS011;2698;51.454;6.736;2022-08-19T06:24:26;79.30;;;48.57;;
5351;SDS011;2698;51.454;6.736;2022-08-19T06:26:56;62.17;;;48.07;;
5351;SDS011;2698;51.454;6.736;2022-08-19T06:29:24;74.20;;;48.50;;
5351;SDS011;2698;51.454;6.736;2022-08-19T06:31:56;101.00;;;58.37;;
5351;SDS011;2698;51.454;6.736;2022-08-19T06:34:24;74.17;;;52.20;;
5351;SDS011;2698;51.454;6.736;2022-08-19T06:36:53;70.53;;;53.77;;
5351;SDS011;2698;51.454;6.736;2022-08-19T06:39:21;69.23;;;50.97;;
5351;SDS011;2698;51.454;6.736;2022-08-19T06:41:50;66.50;;;49.80;;
5351;SDS011;2698;51.454;6.736;2022-08-19T06:44:21;60.43;;;51.60;;
5351;SDS011;2698;51.454;6.736;2022-08-19T06:46:50;70.97;;;51.43;;
5351;SDS011;2698;51.454;6.736;2022-08-19T06:49:18;62.27;;;50.20;;
5351;SDS011;2698;51.454;6.736;2022-08-19T06:51:46;58.07;;;51.03;;
5351;SDS011;2698;51.454;6.736;2022-08-19T06:54:14;60.93;;;50.60;;
5351;SDS011;2698;51.454;6.736;2022-08-19T06:56:41;66.07;;;50.40;;
5351;SDS011;2698;51.454;6.736;2022-08-19T06:59:11;63.40;;;50.50;;
5351;SDS011;2698;51.454;6.736;2022-08-19T07:01:40;63.00;;;49.37;;
5351;SDS011;2698;51.454;6.736;2022-08-19T07:04:11;69.67;;;51.10;;
5351;SDS011;2698;51.454;6.736;2022-08-19T07:06:42;62.20;;;51.10;;
5351;SDS011;2698;51.454;6.736;2022-08-19T07:09:10;67.63;;;51.93;;
5351;SDS011;2698;51.454;6.736;2022-08-19T07:11:43;70.53;;;49.97;;
5351;SDS011;2698;51.454;6.736;2022-08-19T07:14:11;60.73;;;50.90;;
5351;SDS011;2698;51.454;6.736;2022-08-19T07:16:39;58.67;;;48.33;;
5351;SDS011;2698;51.454;6.736;2022-08-19T07:19:06;58.73;;;48.50;;
5351;SDS011;2698;51.454;6.736;2022-08-19T07:21:33;54.50;;;46.37;;
5351;SDS011;2698;51.454;6.736;2022-08-19T07:24:03;56.70;;;47.53;;
5351;SDS011;2698;51.454;6.736;2022-08-19T07:26:31;50.40;;;43.70;;
5351;SDS011;2698;51.454;6.736;2022-08-19T07:29:00;59.43;;;45.13;;
5351;SDS011;2698;51.454;6.736;2022-08-19T07:31:27;55.63;;;45.20;;
5351;SDS011;2698;51.454;6.736;2022-08-19T07:33:55;51.60;;;43.00;;
5351;SDS011;2698;51.454;6.736;2022-08-19T07:36:23;48.03;;;42.67;;
5351;SDS011;2698;51.454;6.736;2022-08-19T07:38:57;48.43;;;42.13;;
5351;SDS011;2698;51.454;6.736;2022-08-19T07:41:28;49.20;;;42.63;;
5351;SDS011;2698;51.454;6.736;2022-08-19T07:43:57;49.83;;;42.70;;
5351;SDS011;2698;51.454;6.736;2022-08-19T07:46:29;53.20;;;39.30;;
5351;SDS011;2698;51.454;6.736;2022-08-19T07:48:57;41.53;;;36.13;;
5351;SDS011;2698;51.454;6.736;2022-08-19T07:51:25;46.13;;;38.50;;
5351;SDS011;2698;51.454;6.736;2022-08-19T07:53:53;42.67;;;36.47;;
5351;SDS011;2698;51.454;6.736;2022-08-19T07:56:20;45.43;;;36.00;;
5351;SDS011;2698;51.454;6.736;2022-08-19T07:58:49;37.30;;;31.67;;
5351;SDS011;2698;51.454;6.736;2022-08-19T08:01:19;40.53;;;34.37;;
5351;SDS011;2698;51.454;6.736;2022-08-19T08:03:47;36.80;;;30.10;;
5351;SDS011;2698;51.454;6.736;2022-08-19T08:06:31;40.73;;;31.23;;
5351;SDS011;2698;51.454;6.736;2022-08-19T08:09:16;42.00;;;30.90;;
5351;SDS011;2698;51.454;6.736;2022-08-19T08:11:47;35.97;;;28.40;;
5351;SDS011;2698;51.454;6.736;2022-08-19T08:14:18;37.67;;;26.33;;
5351;SDS011;2698;51.454;6.736;2022-08-19T08:16:47;34.80;;;26.43;;
5351;SDS011;2698;51.454;6.736;2022-08-19T08:19:16;28.83;;;22.03;;
5351;SDS011;2698;51.454;6.736;2022-08-19T08:21:44;26.00;;;22.60;;
5351;SDS011;2698;51.454;6.736;2022-08-19T08:24:11;25.47;;;22.57;;
5351;SDS011;2698;51.454;6.736;2022-08-19T08:26:38;25.57;;;21.37;;
5351;SDS011;2698;51.454;6.736;2022-08-19T08:29:05;30.00;;;22.67;;
5351;SDS011;2698;51.454;6.736;2022-08-19T08:31:38;30.00;;;22.73;;
5351;SDS011;2698;51.454;6.736;2022-08-19T08:34:05;27.90;;;22.33;;
5351;SDS011;2698;51.454;6.736;2022-08-19T08:36:32;32.43;;;25.87;;
5351;SDS011;2698;51.454;6.736;2022-08-19T08:39:06;34.67;;;26.10;;
5351;SDS011;2698;51.454;6.736;2022-08-19T08:41:34;30.10;;;25.70;;
5351;SDS011;2698;51.454;6.736;2022-08-19T08:44:06;34.67;;;26.67;;
5351;SDS011;2698;51.454;6.736;2022-08-19T08:46:41;32.10;;;25.17;;
5351;SDS011;2698;51.454;6.736;2022-08-19T08:49:16;35.80;;;26.67;;
5351;SDS011;2698;51.454;6.736;2022-08-19T08:51:58;31.70;;;26.50;;
5351;SDS011;2698;51.454;6.736;2022-08-19T08:54:30;35.17;;;24.90;;
5351;SDS011;2698;51.454;6.736;2022-08-19T08:57:02;31.40;;;25.03;;
5351;SDS011;2698;51.454;6.736;2022-08-19T08:59:34;37.53;;;21.60;;
5351;SDS011;2698;51.454;6.736;2022-08-19T09:02:04;25.77;;;20.93;;
5351;SDS011;2698;51.454;6.736;2022-08-19T09:04:31;31.27;;;21.90;;
5351;SDS011;2698;51.454;6.736;2022-08-19T09:07:02;24.80;;;20.70;;
5351;SDS011;2698;51.454;6.736;2022-08-19T09:09:42;35.87;;;26.90;;
5351;SDS011;2698;51.454;6.736;2022-08-19T09:12:13;38.60;;;28.90;;
5351;SDS011;2698;51.454;6.736;2022-08-19T09:14:47;35.57;;;30.50;;
5351;SDS011;2698;51.454;6.736;2022-08-19T09:17:18;43.03;;;28.60;;
5351;SDS011;2698;51.454;6.736;2022-08-19T09:19:54;37.23;;;28.67;;
5351;SDS011;2698;51.454;6.736;2022-08-19T09:22:23;35.47;;;29.27;;
5351;SDS011;2698;51.454;6.736;2022-08-19T09:24:52;41.23;;;28.80;;
5351;SDS011;2698;51.454;6.736;2022-08-19T09:27:19;41.33;;;30.53;;
5351;SDS011;2698;51.454;6.736;2022-08-19T09:29:48;42.17;;;32.57;;
5351;SDS011;2698;51.454;6.736;2022-08-19T09:32:15;37.20;;;28.60;;
5351;SDS011;2698;51.454;6.736;2022-08-19T09:34:44;36.33;;;26.90;;
5351;SDS011;2698;51.454;6.736;2022-08-19T09:37:11;33.00;;;26.50;;
5351;SDS011;2698;51.454;6.736;2022-08-19T09:39:39;41.30;;;29.17;;
5351;SDS011;2698;51.454;6.736;2022-08-19T09:42:07;36.17;;;27.30;;
5351;SDS011;2698;51.454;6.736;2022-08-19T09:44:37;36.70;;;28.70;;
5351;SDS011;2698;51.454;6.736;2022-08-19T09:47:04;41.00;;;30.97;;
5351;SDS011;2698;51.454;6.736;2022-08-19T09:49:31;43.73;;;30.77;;
5351;SDS011;2698;51.454;6.736;2022-08-19T09:52:00;40.20;;;26.83;;
5351;SDS011;2698;51.454;6.736;2022-08-19T09:54:27;32.73;;;25.83;;
5351;SDS011;2698;51.454;6.736;2022-08-19T09:56:54;29.03;;;25.83;;
5351;SDS011;2698;51.454;6.736;2022-08-19T09:59:25;35.83;;;29.10;;
5351;SDS011;2698;51.454;6.736;2022-08-19T10:01:52;32.53;;;27.23;;
5351;SDS011;2698;51.454;6.736;2022-08-19T10:04:19;37.10;;;29.40;;
5351;SDS011;2698;51.454;6.736;2022-08-19T10:06:47;34.50;;;27.83;;
5351;SDS011;2698;51.454;6.736;2022-08-19T10:09:17;35.60;;;27.57;;
5351;SDS011;2698;51.454;6.736;2022-08-19T10:11:44;34.43;;;27.77;;
5351;SDS011;2698;51.454;6.736;2022-08-19T10:14:14;34.07;;;27.17;;
5351;SDS011;2698;51.454;6.736;2022-08-19T10:16:42;36.27;;;29.57;;
5351;SDS011;2698;51.454;6.736;2022-08-19T10:19:09;32.80;;;26.20;;
5351;SDS011;2698;51.454;6.736;2022-08-19T10:21:36;30.47;;;25.00;;
5351;SDS011;2698;51.454;6.736;2022-08-19T10:24:04;34.80;;;24.50;;
5351;SDS011;2698;51.454;6.736;2022-08-19T10:26:34;32.70;;;24.00;;
5351;SDS011;2698;51.454;6.736;2022-08-19T10:29:03;24.80;;;22.10;;
5351;SDS011;2698;51.454;6.736;2022-08-19T10:31:31;36.40;;;22.20;;
5351;SDS011;2698;51.454;6.736;2022-08-19T10:33:59;22.67;;;19.03;;
5351;SDS011;2698;51.454;6.736;2022-08-19T10:36:27;30.17;;;21.87;;
5351;SDS011;2698;51.454;6.736;2022-08-19T10:38:57;20.67;;;17.50;;
5351;SDS011;2698;51.454;6.736;2022-08-19T10:41:27;19.10;;;17.03;;
5351;SDS011;2698;51.454;6.736;2022-08-19T10:43:58;20.93;;;16.77;;
5351;SDS011;2698;51.454;6.736;2022-08-19T10:46:26;23.67;;;17.70;;
5351;SDS011;2698;51.454;6.736;2022-08-19T10:48:56;20.80;;;15.00;;
5351;SDS011;2698;51.454;6.736;2022-08-19T10:51:23;23.33;;;17.33;;
5351;SDS011;2698;51.454;6.736;2022-08-19T10:54:07;19.03;;;14.97;;
5351;SDS011;2698;51.454;6.736;2022-08-19T10:56:34;16.80;;;15.00;;
5351;SDS011;2698;51.454;6.736;2022-08-19T10:59:21;17.50;;;14.30;;
5351;SDS011;2698;51.454;6.736;2022-08-19T11:01:51;19.93;;;15.70;;
5351;SDS011;2698;51.454;6.736;2022-08-19T11:04:18;17.40;;;13.37;;
5351;SDS011;2698;51.454;6.736;2022-08-19T11:06:47;17.03;;;13.10;;
5351;SDS011;2698;51.454;6.736;2022-08-19T11:09:15;20.10;;;13.30;;
5351;SDS011;2698;51.454;6.736;2022-08-19T11:11:46;17.70;;;14.00;;
5351;SDS011;2698;51.454;6.736;2022-08-19T11:14:14;14.53;;;13.00;;
5351;SDS011;2698;51.454;6.736;2022-08-19T11:16:44;15.23;;;13.53;;
5351;SDS011;2698;51.454;6.736;2022-08-19T11:19:11;13.27;;;11.97;;
5351;SDS011;2698;51.454;6.736;2022-08-19T11:21:41;13.87;;;10.90;;
5351;SDS011;2698;51.454;6.736;2022-08-19T11:24:10;15.60;;;12.13;;
5351;SDS011;2698;51.454;6.736;2022-08-19T11:26:38;14.67;;;12.03;;
5351;SDS011;2698;51.454;6.736;2022-08-19T11:29:06;14.03;;;11.43;;
5351;SDS011;2698;51.454;6.736;2022-08-19T11:31:36;15.67;;;14.03;;
5351;SDS011;2698;51.454;6.736;2022-08-19T11:34:07;18.03;;;12.90;;
5351;SDS011;2698;51.454;6.736;2022-08-19T11:36:37;14.60;;;12.70;;
5351;SDS011;2698;51.454;6.736;2022-08-19T11:39:05;13.90;;;11.27;;
5351;SDS011;2698;51.454;6.736;2022-08-19T11:41:33;11.47;;;10.00;;
5351;SDS011;2698;51.454;6.736;2022-08-19T11:44:01;14.40;;;12.70;;
5351;SDS011;2698;51.454;6.736;2022-08-19T11:46:29;13.87;;;11.77;;
5351;SDS011;2698;51.454;6.736;2022-08-19T11:48:57;13.10;;;11.03;;
5351;SDS011;2698;51.454;6.736;2022-08-19T11:51:27;14.33;;;10.97;;
5351;SDS011;2698;51.454;6.736;2022-08-19T11:53:54;11.47;;;10.20;;
5351;SDS011;2698;51.454;6.736;2022-08-19T11:56:23;11.70;;;10.20;;
5351;SDS011;2698;51.454;6.736;2022-08-19T11:58:50;9.90;;;8.10;;
5351;SDS011;2698;51.454;6.736;2022-08-19T12:01:19;8.23;;;7.30;;
5351;SDS011;2698;51.454;6.736;2022-08-19T12:03:48;11.33;;;10.13;;
5351;SDS011;2698;51.454;6.736;2022-08-19T12:06:18;17.40;;;9.97;;
5351;SDS011;2698;51.454;6.736;2022-08-19T12:08:49;8.50;;;7.70;;
5351;SDS011;2698;51.454;6.736;2022-08-19T12:11:16;9.67;;;8.67;;
5351;SDS011;2698;51.454;6.736;2022-08-19T12:13:43;13.83;;;10.67;;
5351;SDS011;2698;51.454;6.736;2022-08-19T12:16:12;10.40;;;8.70;;
5351;SDS011;2698;51.454;6.736;2022-08-19T12:18:42;11.80;;;8.67;;
5351;SDS011;2698;51.454;6.736;2022-08-19T12:21:11;10.30;;;8.70;;
5351;SDS011;2698;51.454;6.736;2022-08-19T12:23:38;8.47;;;7.17;;
5351;SDS011;2698;51.454;6.736;2022-08-19T12:26:08;8.53;;;7.63;;
5351;SDS011;2698;51.454;6.736;2022-08-19T12:28:35;14.47;;;8.53;;
5351;SDS011;2698;51.454;6.736;2022-08-19T12:31:02;10.33;;;7.20;;
5351;SDS011;2698;51.454;6.736;2022-08-19T12:33:29;12.23;;;6.80;;
5351;SDS011;2698;51.454;6.736;2022-08-19T12:36:00;14.33;;;6.47;;
5351;SDS011;2698;51.454;6.736;2022-08-19T12:38:28;9.33;;;6.67;;
5351;SDS011;2698;51.454;6.736;2022-08-19T12:40:55;7.27;;;6.47;;
5351;SDS011;2698;51.454;6.736;2022-08-19T12:43:24;6.83;;;5.00;;
5351;SDS011;2698;51.454;6.736;2022-08-19T12:45:51;9.63;;;6.30;;
5351;SDS011;2698;51.454;6.736;2022-08-19T12:48:18;7.43;;;5.27;;
5351;SDS011;2698;51.454;6.736;2022-08-19T12:50:45;7.10;;;6.40;;
5351;SDS011;2698;51.454;6.736;2022-08-19T12:53:12;18.10;;;5.87;;
5351;SDS011;2698;51.454;6.736;2022-08-19T12:55:39;9.20;;;5.27;;
5351;SDS011;2698;51.454;6.736;2022-08-19T12:58:07;10.47;;;5.13;;
5351;SDS011;2698;51.454;6.736;2022-08-19T13:00:36;6.27;;;4.90;;
5351;SDS011;2698;51.454;6.736;2022-08-19T13:03:03;5.83;;;3.93;;
5351;SDS011;2698;51.454;6.736;2022-08-19T13:05:30;8.60;;;4.80;;
5351;SDS011;2698;51.454;6.736;2022-08-19T13:07:59;7.60;;;5.00;;
5351;SDS011;2698;51.454;6.736;2022-08-19T13:10:28;9.23;;;6.20;;
5351;SDS011;2698;51.454;6.736;2022-08-19T13:12:56;12.27;;;6.90;;
5351;SDS011;2698;51.454;6.736;2022-08-19T13:15:24;9.90;;;5.50;;
5351;SDS011;2698;51.454;6.736;2022-08-19T13:17:55;7.23;;;6.53;;
5351;SDS011;2698;51.454;6.736;2022-08-19T13:20:23;12.60;;;6.60;;
5351;SDS011;2698;51.454;6.736;2022-08-19T13:22:51;8.43;;;7.00;;
5351;SDS011;2698;51.454;6.736;2022-08-19T13:25:18;18.67;;;8.57;;
5351;SDS011;2698;51.454;6.736;2022-08-19T13:27:46;9.63;;;6.17;;
5351;SDS011;2698;51.454;6.736;2022-08-19T13:30:15;10.07;;;6.33;;
5351;SDS011;2698;51.454;6.736;2022-08-19T13:33:01;9.60;;;6.17;;
5351;SDS011;2698;51.454;6.736;2022-08-19T13:35:39;11.53;;;6.50;;
5351;SDS011;2698;51.454;6.736;2022-08-19T13:38:08;10.93;;;7.47;;
5351;SDS011;2698;51.454;6.736;2022-08-19T13:40:35;7.00;;;6.10;;
5351;SDS011;2698;51.454;6.736;2022-08-19T13:43:04;7.70;;;6.37;;
5351;SDS011;2698;51.454;6.736;2022-08-19T13:45:32;8.97;;;6.40;;
5351;SDS011;2698;51.454;6.736;2022-08-19T13:48:00;9.43;;;6.77;;
5351;SDS011;2698;51.454;6.736;2022-08-19T13:50:31;8.87;;;7.53;;
5351;SDS011;2698;51.454;6.736;2022-08-19T13:52:59;18.27;;;6.37;;
5351;SDS011;2698;51.454;6.736;2022-08-19T13:55:27;12.37;;;6.23;;
5351;SDS011;2698;51.454;6.736;2022-08-19T13:57:54;10.93;;;6.83;;
5351;SDS011;2698;51.454;6.736;2022-08-19T14:00:22;8.50;;;6.10;;
5351;SDS011;2698;51.454;6.736;2022-08-19T14:02:51;12.43;;;7.60;;
5351;SDS011;2698;51.454;6.736;2022-08-19T14:05:22;13.60;;;8.00;;
5351;SDS011;2698;51.454;6.736;2022-08-19T14:07:50;9.90;;;7.30;;
5351;SDS011;2698;51.454;6.736;2022-08-19T14:10:17;8.13;;;6.80;;
5351;SDS011;2698;51.454;6.736;2022-08-19T14:12:45;8.80;;;7.90;;
5351;SDS011;2698;51.454;6.736;2022-08-19T14:15:12;10.87;;;9.30;;
5351;SDS011;2698;51.454;6.736;2022-08-19T14:17:40;9.80;;;8.80;;
5351;SDS011;2698;51.454;6.736;2022-08-19T14:20:09;12.33;;;9.23;;
5351;SDS011;2698;51.454;6.736;2022-08-19T14:22:39;7.70;;;6.60;;
5351;SDS011;2698;51.454;6.736;2022-08-19T14:25:07;14.50;;;7.70;;
5351;SDS011;2698;51.454;6.736;2022-08-19T14:27:36;10.87;;;7.37;;
5351;SDS011;2698;51.454;6.736;2022-08-19T14:30:04;12.93;;;7.00;;
5351;SDS011;2698;51.454;6.736;2022-08-19T14:32:32;11.17;;;6.70;;
5351;SDS011;2698;51.454;6.736;2022-08-19T14:35:00;8.10;;;6.60;;
5351;SDS011;2698;51.454;6.736;2022-08-19T14:37:27;17.10;;;7.47;;
5351;SDS011;2698;51.454;6.736;2022-08-19T14:39:55;19.73;;;6.43;;
5351;SDS011;2698;51.454;6.736;2022-08-19T14:42:22;11.27;;;6.47;;
5351;SDS011;2698;51.454;6.736;2022-08-19T14:44:49;11.20;;;6.13;;
5351;SDS011;2698;51.454;6.736;2022-08-19T14:47:15;8.43;;;6.87;;
5351;SDS011;2698;51.454;6.736;2022-08-19T14:49:42;6.87;;;5.77;;
5351;SDS011;2698;51.454;6.736;2022-08-19T14:52:09;7.10;;;5.33;;
5351;SDS011;2698;51.454;6.736;2022-08-19T14:54:36;7.03;;;5.37;;
5351;SDS011;2698;51.454;6.736;2022-08-19T14:57:04;7.83;;;5.50;;
5351;SDS011;2698;51.454;6.736;2022-08-19T14:59:31;7.67;;;6.20;;
5351;SDS011;2698;51.454;6.736;2022-08-19T15:02:05;6.30;;;5.60;;